Flight Track Log - Related Links

Times and Time Zones

All times are in EDT time to prevent confusion due to time zone crossing. See the C-FRMV flight status page for this flight to view local times or setup timezone preferences in your user account.

Time Position Orientation Groundspeed Altitude Reporting Facility
EDT Latitude Longitude Course Direction KTS MPH feet Rate Location/Type
Tue 05:44:39 PM 49.9000 -97.2333 147° Southeast 70 81 800  Level Winnipeg Center
Tue 05:45:39 PM 49.8667 -97.2000 136° Southeast 160 184 2,100 1,550 Climbing Winnipeg Center
Tue 05:46:39 PM 49.8333 -97.1500 90° East 150 173 3,900 1,700 Climbing Winnipeg Center
Tue 05:47:39 PM 49.8333 -97.1000 44° Northeast 160 184 5,500 1,550 Climbing Winnipeg Center
Tue 05:48:39 PM 49.8667 -97.0500 33° Northeast 180 207 7,000 1,450 Climbing Winnipeg Center
Tue 05:49:39 PM 49.9167 -97.0000 52° Northeast 190 219 8,400 1,400 Climbing Winnipeg Center
Tue 05:50:39 PM 49.9500 -96.9333 33° Northeast 200 230 9,800 1,200 Climbing Winnipeg Center
Tue 05:51:39 PM 50.0000 -96.8833 33° Northeast 200 230 10,800 1,200 Climbing Winnipeg Center
Tue 05:52:39 PM 50.0500 -96.8333 360° North 190 219 12,200 1,300 Climbing Winnipeg Center
Tue 05:53:39 PM 50.1000 -96.8333 33° Northeast 180 207 13,400 1,150 Climbing Winnipeg Center
Tue 05:54:39 PM 50.1500 -96.7833 360° North 180 207 14,500 1,050 Climbing Winnipeg Center
Tue 05:55:39 PM 50.1833 -96.7833 33° Northeast 180 207 15,500 1,000 Climbing Winnipeg Center
Tue 05:56:39 PM 50.2333 -96.7333 23° Northeast 180 207 16,500 950 Climbing Winnipeg Center
Tue 05:57:39 PM 50.2833 -96.7000 12° North 190 219 17,400 1,100 Climbing Winnipeg Center
Tue 05:58:39 PM 50.3333 -96.6833 33° Northeast 180 207 18,700 1,050 Climbing Winnipeg Center
Tue 05:59:39 PM 50.3667 -96.6500 360° North 170 196 19,500 750 Climbing Winnipeg Center
Tue 06:00:39 PM 50.4167 -96.6500 23° Northeast 170 196 20,200 700 Climbing Winnipeg Center
Tue 06:01:39 PM 50.4667 -96.6167 360° North 180 207 20,900 700 Climbing Winnipeg Center
Tue 06:02:39 PM 50.5167 -96.6167 328° Northwest 170 196 21,600 650 Climbing Winnipeg Center
Tue 06:03:39 PM 50.5500 -96.6500 360° North 160 184 22,200 600 Climbing Winnipeg Center
Tue 06:04:39 PM 50.6000 -96.6500 337° Northwest 170 196 22,800 550 Climbing Winnipeg Center
Tue 06:05:39 PM 50.6500 -96.6833 12° North 170 196 23,300 550 Climbing Winnipeg Center
Tue 06:06:39 PM 50.7000 -96.6667 12° North 180 207 23,900 650 Climbing Winnipeg Center
Tue 06:07:39 PM 50.7500 -96.6500 23° Northeast 180 207 24,600 500 Climbing Winnipeg Center
Tue 06:08:39 PM 50.8000 -96.6167 360° North 180 207 24,900 200 Climbing Winnipeg Center
Tue 06:09:39 PM 50.8500 -96.6167 12° North 190 219 25,000 50 Climbing Winnipeg Center
Tue 06:10:39 PM 50.9000 -96.6000 17° North 210 242 25,000  Level Winnipeg Center
Tue 06:11:39 PM 50.9667 -96.5667 23° Northeast 220 253 25,000  Level Winnipeg Center
Tue 06:12:39 PM 51.0167 -96.5333 North 220 253 25,000  Level Winnipeg Center
Tue 06:13:39 PM 51.0833 -96.5167 23° Northeast 220 253 25,000  Level Winnipeg Center
Tue 06:14:39 PM 51.1333 -96.4833 25° Northeast 220 253 25,000  Level Winnipeg Center
Tue 06:15:39 PM 51.2000 -96.4333 23° Northeast 220 253 25,000  Level Winnipeg Center
Tue 06:16:39 PM 51.2500 -96.4000 North 230 265 25,000  Level Winnipeg Center
Tue 06:17:39 PM 51.3167 -96.3833 40° Northeast 220 253 25,000  Level Winnipeg Center
Tue 06:18:39 PM 51.3667 -96.3167 North 220 253 25,000  Level Winnipeg Center
Tue 06:19:39 PM 51.4333 -96.3000 40° Northeast 230 265 25,000  Level Winnipeg Center
Tue 06:20:39 PM 51.4833 -96.2333 North 230 265 25,000  Level Winnipeg Center
Tue 06:21:39 PM 51.5500 -96.2167 32° Northeast 240 276 25,000  Level Winnipeg Center
Tue 06:22:39 PM 51.6167 -96.1500 12° North 240 276 25,000  Level Winnipeg Center
Tue 06:23:39 PM 51.6667 -96.1333 32° Northeast 240 276 25,000  Level Winnipeg Center
Tue 06:24:39 PM 51.7333 -96.0667 North 240 276 25,000  Level Winnipeg Center
Tue 06:25:39 PM 51.8000 -96.0500 22° Northeast 240 276 25,000  Level Winnipeg Center
Tue 06:26:39 PM 51.8500 -96.0167 25° Northeast 240 276 25,000  Level Winnipeg Center
Tue 06:27:39 PM 51.9167 -95.9667 17° North 230 265 25,000  Level Winnipeg Center
Tue 06:28:39 PM 51.9833 -95.9333 32° Northeast 240 276 25,000  Level Winnipeg Center
Tue 06:29:39 PM 52.0333 -95.8833 17° North 230 265 25,000  Level Winnipeg Center
Tue 06:30:39 PM 52.1000 -95.8500 39° Northeast 230 265 25,000  Level Winnipeg Center
Tue 06:31:39 PM 52.1500 -95.7833 North 240 276 25,000  Level Winnipeg Center
Tue 06:32:39 PM 52.2167 -95.7667 17° North 230 265 25,000  Level Winnipeg Center
Tue 06:33:39 PM 52.2833 -95.7333 31° Northeast 240 276 25,000  Level Winnipeg Center
Tue 06:34:39 PM 52.3333 -95.6833 17° North 230 265 25,000  Level Winnipeg Center
Tue 06:35:39 PM 52.4000 -95.6500 17° North 240 276 25,000  Level Winnipeg Center
Tue 06:36:39 PM 52.4667 -95.6167 31° Northeast 240 276 25,000  Level Winnipeg Center
Tue 06:37:39 PM 52.5167 -95.5667 17° North 240 276 25,000  Level Winnipeg Center
Tue 06:38:39 PM 52.5833 -95.5333 31° Northeast 240 276 25,000  Level Winnipeg Center
Tue 06:39:39 PM 52.6500 -95.4667 11° North 240 276 25,000  Level Winnipeg Center
Tue 06:40:39 PM 52.7000 -95.4500 24° Northeast 240 276 25,000  Level Winnipeg Center
Tue 06:42:39 PM 52.8333 -95.3500 11° North 240 276 25,000  Level Winnipeg Center
Tue 06:43:39 PM 52.8833 -95.3333 28° Northeast 240 276 25,000  Level Winnipeg Center
Tue 06:46:11 PM 53.0500 -95.1833 22° Northeast 280 322 25,000  Level Winnipeg Center
Tue 06:47:11 PM 53.1000 -95.1500 17° North 240 276 25,000  Level Winnipeg Center
Tue 06:48:11 PM 53.1667 -95.1167 22° Northeast 230 265 25,000  Level Winnipeg Center
Tue 06:49:11 PM 53.2167 -95.0833 24° Northeast 230 265 25,000  Level Winnipeg Center
Tue 06:50:11 PM 53.2833 -95.0333 17° North 230 265 25,000  Level Winnipeg Center
Tue 06:51:11 PM 53.3500 -95.0000 31° Northeast 230 265 25,000  Level Winnipeg Center
Tue 06:52:11 PM 53.4000 -94.9500 17° North 230 265 25,000  Level Winnipeg Center
Tue 06:53:11 PM 53.4667 -94.9167 22° Northeast 230 265 25,000  Level Winnipeg Center
Tue 06:54:11 PM 53.5167 -94.8833 38° Northeast 230 265 25,000  Level Winnipeg Center
Tue 06:55:11 PM 53.5667 -94.8167 22° Northeast 230 265 25,000  Level Winnipeg Center
Tue 06:56:11 PM 53.6167 -94.7833 24° Northeast 230 265 25,000  Level Winnipeg Center
Tue 06:57:11 PM 53.6833 -94.7333 16° North 240 276 25,000  Level Winnipeg Center
Tue 06:58:11 PM 53.7500 -94.7000 31° Northeast 240 276 25,000  Level Winnipeg Center
Tue 06:59:11 PM 53.8167 -94.6333 21° North 240 276 25,000  Level Winnipeg Center
Tue 07:00:11 PM 53.8667 -94.6000 16° North 240 276 25,000  Level Winnipeg Center
Tue 07:01:11 PM 53.9333 -94.5667 322° Northwest 220 253 25,000  Level Winnipeg Center
Tue 07:02:11 PM 53.9833 -94.6333 349° North 190 219 25,000  Level Winnipeg Center
Tue 07:03:11 PM 54.0333 -94.6500 360° North 190 219 25,000  Level Winnipeg Center
Tue 07:04:11 PM 54.0833 -94.6500 360° North 200 230 25,000  Level Winnipeg Center
Tue 07:05:11 PM 54.1500 -94.6500 360° North 210 242 25,000  Level Winnipeg Center
Tue 07:06:11 PM 54.2000 -94.6500 North 220 253 25,000  Level Winnipeg Center
Tue 07:07:11 PM 54.2667 -94.6333 360° North 220 253 25,000  Level Winnipeg Center
Tue 07:08:11 PM 54.3333 -94.6333 360° North 210 242 25,000  Level Winnipeg Center
Tue 07:09:11 PM 54.4000 -94.6333 360° North 220 253 25,000  Level Winnipeg Center
Tue 07:10:11 PM 54.4667 -94.6333 360° North 210 242 25,000  Level Winnipeg Center
Tue 07:11:11 PM 54.5167 -94.6333 352° North 210 242 25,000  Level Winnipeg Center
Tue 07:12:11 PM 54.5833 -94.6500 360° North 210 242 25,000  Level Winnipeg Center
Tue 07:13:11 PM 54.6333 -94.6500 360° North 220 253 25,000  Level Winnipeg Center
Tue 07:14:11 PM 54.7000 -94.6500 360° North 220 253 25,000  Level Winnipeg Center
Tue 07:15:11 PM 54.7667 -94.6500 11° North 210 242 25,000  Level Winnipeg Center
Tue 07:16:11 PM 54.8167 -94.6333 344° North 210 242 25,000  Level Winnipeg Center
Tue 07:17:11 PM 54.8833 -94.6667 360° North 220 253 25,000  Level Winnipeg Center
Tue 07:18:11 PM 54.9333 -94.6667 North 220 253 25,000  Level Winnipeg Center
Tue 07:19:11 PM 55.0000 -94.6500 360° North 220 253 25,000  Level Winnipeg Center
Tue 07:20:11 PM 55.0667 -94.6500 360° North 220 253 25,000  Level Winnipeg Center
Tue 07:21:11 PM 55.1333 -94.6500 360° North 220 253 25,000  Level Winnipeg Center
Tue 07:22:11 PM 55.1833 -94.6500 360° North 220 253 25,000  Level Winnipeg Center
Tue 07:23:11 PM 55.2500 -94.6500 352° North 230 265 25,000  Level Winnipeg Center
Tue 07:24:11 PM 55.3167 -94.6667 360° North 220 253 25,000  Level Winnipeg Center
Tue 07:25:11 PM 55.3667 -94.6667 360° North 220 253 25,000  Level Winnipeg Center
Tue 07:26:11 PM 55.4333 -94.6667 North 220 253 25,000  Level Winnipeg Center
Tue 07:27:11 PM 55.5000 -94.6500 360° North 230 265 25,000  Level Winnipeg Center
Tue 07:28:11 PM 55.5667 -94.6500 339° North 220 253 25,000  Level Winnipeg Center
Tue 07:29:11 PM 55.6167 -94.6833 360° North 230 265 25,000  Level Winnipeg Center
Tue 07:30:11 PM 55.6833 -94.6833 North 230 265 25,000  Level Winnipeg Center
Tue 07:31:11 PM 55.7500 -94.6667 360° North 220 253 25,000  Level Winnipeg Center
Tue 07:32:11 PM 55.8167 -94.6667 360° North 220 253 25,000  Level Winnipeg Center
Tue 07:33:11 PM 55.8667 -94.6667 360° North 230 265 25,000  Level Winnipeg Center
Tue 07:34:11 PM 55.9333 -94.6667 352° North 230 265 25,000  Level Winnipeg Center
Tue 07:35:11 PM 56.0000 -94.6833 360° North 230 265 25,000  Level Winnipeg Center
Tue 07:36:11 PM 56.0500 -94.6833 360° North 230 265 25,000  Level Winnipeg Center
Tue 07:37:11 PM 56.1167 -94.6833 360° North 220 253 25,000  Level Winnipeg Center
Tue 07:38:11 PM 56.1833 -94.6833 North 220 253 25,000  Level Winnipeg Center
Tue 07:39:11 PM 56.2500 -94.6667 360° North 220 253 25,000  Level Winnipeg Center
Tue 07:40:11 PM 56.3000 -94.6667 360° North 220 253 25,000  Level Winnipeg Center
Tue 07:41:11 PM 56.3667 -94.6667 360° North 220 253 25,000  Level Winnipeg Center
Tue 07:42:11 PM 56.4333 -94.6667 North 230 265 25,000  Level Winnipeg Center
Tue 07:43:11 PM 56.5000 -94.6500 15° North 230 265 25,000  Level Winnipeg Center
Tue 07:44:11 PM 56.5667 -94.6167 360° North 230 265 25,000  Level Winnipeg Center
Tue 07:45:11 PM 56.6167 -94.6167 360° North 230 265 25,000  Level Winnipeg Center
Tue 07:46:11 PM 56.6833 -94.6167 15° North 230 265 25,000  Level Winnipeg Center
Tue 07:47:11 PM 56.7500 -94.5833 360° North 230 265 25,000  Level Winnipeg Center
Tue 07:48:11 PM 56.8167 -94.5833 North 230 265 25,000  Level Winnipeg Center
Tue 07:49:11 PM 56.8833 -94.5667 15° North 230 265 25,000  Level Winnipeg Center
Tue 07:50:11 PM 56.9500 -94.5333 360° North 230 265 25,000  Level Winnipeg Center
Tue 07:51:11 PM 57.0000 -94.5333 360° North 230 265 25,000  Level Winnipeg Center
Tue 07:52:11 PM 57.0667 -94.5333 15° North 230 265 25,000  Level Winnipeg Center
Tue 07:53:11 PM 57.1333 -94.5000 North 230 265 25,000  Level Winnipeg Center
Tue 07:54:11 PM 57.2000 -94.4833 360° North 230 265 25,000  Level Winnipeg Center
Tue 07:55:11 PM 57.2667 -94.4833 15° North 230 265 25,000  Level Winnipeg Center
Tue 07:56:11 PM 57.3333 -94.4500 360° North 230 265 25,000  Level Winnipeg Center
Tue 07:57:11 PM 57.4000 -94.4500 360° North 230 265 25,000  Level Winnipeg Center
Tue 07:58:11 PM 57.4500 -94.4500 22° Northeast 230 265 25,000  Level Winnipeg Center
Tue 07:59:11 PM 57.5167 -94.4000 360° North 230 265 25,000  Level Winnipeg Center
Tue 08:00:11 PM 57.5833 -94.4000 360° North 240 276 25,000  Level Winnipeg Center
Tue 08:01:11 PM 57.6500 -94.4000 15° North 230 265 25,000  Level Winnipeg Center
Tue 08:02:11 PM 57.7167 -94.3667 360° North 240 276 25,000  Level Winnipeg Center
Tue 08:03:11 PM 57.7667 -94.3667 North 230 265 25,000 -50 Level Winnipeg Center
Tue 08:04:11 PM 57.8500 -94.3500 15° North 240 276 24,900 -300 Descending Winnipeg Center
Tue 08:05:11 PM 57.9167 -94.3167 360° North 250 288 24,400 -450 Descending Winnipeg Center
Tue 08:06:11 PM 57.9833 -94.3167 North 240 276 24,000 -200 Descending Winnipeg Center
Tue 08:07:11 PM 58.0500 -94.3000 North 260 299 24,000  Level Winnipeg Center
Tue 08:15:15 PM 58.5462 -94.2635 North  Level FlightAware Approximate
Tue 08:16:15 PM 58.6077 -94.2589 North  Level FlightAware Approximate
Tue 08:17:15 PM 58.6692 -94.2543 North  Level FlightAware Approximate
Tue 08:18:15 PM 58.7307 -94.2497 North  Level FlightAware Approximate
Tue 08:19:15 PM 58.7922 -94.2450 North  Level FlightAware Approximate
Tue 08:20:15 PM 58.8537 -94.2404 North  Level FlightAware Approximate
Tue 08:21:15 PM 58.9153 -94.2357 North  Level FlightAware Approximate
Tue 08:22:15 PM 58.9768 -94.2310 North  Level FlightAware Approximate
Tue 08:23:15 PM 59.0383 -94.2263 North  Level FlightAware Approximate
Tue 08:24:15 PM 59.0998 -94.2216 North  Level FlightAware Approximate
Tue 08:25:15 PM 59.1613 -94.2168 North  Level FlightAware Approximate
Tue 08:26:15 PM 59.2228 -94.2121 North  Level FlightAware Approximate
Tue 08:27:15 PM 59.2843 -94.2073 North  Level FlightAware Approximate
Tue 08:28:15 PM 59.3458 -94.2025 North  Level FlightAware Approximate
Tue 08:29:15 PM 59.4073 -94.1977 47° Northeast  Level FlightAware Approximate
Tue 08:30:15 PM 59.4462 -94.1161 North  Level FlightAware Approximate
Tue 08:31:15 PM 59.5077 -94.1142 North  Level FlightAware Approximate
Tue 08:32:15 PM 59.5693 -94.1123 North  Level FlightAware Approximate
Tue 08:33:15 PM 59.6308 -94.1104 North  Level FlightAware Approximate
Tue 08:34:15 PM 59.6924 -94.1085 North  Level FlightAware Approximate
Tue 08:35:15 PM 59.7539 -94.1067 North  Level FlightAware Approximate
Tue 08:36:15 PM 59.8153 -94.0990 North  Level FlightAware Approximate
Tue 08:37:15 PM 59.8768 -94.0973 North  Level FlightAware Approximate
Tue 08:38:15 PM 59.9384 -94.0957 North  Level FlightAware Approximate
Tue 08:39:15 PM 59.9999 -94.0941 North  Level FlightAware Approximate
Tue 08:40:15 PM 60.0615 -94.0924 North  Level FlightAware Approximate
Tue 08:41:15 PM 60.1230 -94.0908 North  Level FlightAware Approximate
Tue 08:42:15 PM 60.1846 -94.0891 North  Level FlightAware Approximate
Tue 08:43:15 PM 60.2461 -94.0875 North  Level FlightAware Approximate
Tue 08:44:15 PM 60.3076 -94.0833 North  Level FlightAware Approximate
Tue 08:45:15 PM 60.3692 -94.0819 North  Level FlightAware Approximate
Tue 08:46:15 PM 60.4307 -94.0804 359° North  Level FlightAware Approximate
Tue 08:47:15 PM 60.4922 -94.0833 North  Level FlightAware Approximate
Tue 08:48:15 PM 60.5538 -94.0813 North  Level FlightAware Approximate
Tue 08:49:15 PM 60.6153 -94.0793 359° North  Level FlightAware Approximate
Tue 08:50:15 PM 60.6768 -94.0823 North  Level FlightAware Approximate
Tue 08:51:15 PM 60.7384 -94.0794 North  Level FlightAware Approximate
Tue 08:52:15 PM 60.7999 -94.0764 North  Level FlightAware Approximate
Tue 08:53:15 PM 60.8611 -94.0667 360° North  Level FlightAware Approximate
Tue 08:54:15 PM 60.9227 -94.0667 360° North  Level FlightAware Approximate
Tue 08:55:15 PM 60.9843 -94.0667 360° North  Level FlightAware Approximate
Tue 08:56:15 PM 61.0458 -94.0667 358° North  Level FlightAware Approximate
Tue 08:57:15 PM 61.1073 -94.0720 174° South  Level Estimated
Tue 08:58:15 PM 61.0833 -94.0667 349° North  Level FlightAware Approximate
Tue 08:59:15 PM 61.1438 -94.0899 169° South  Level Estimated
Tue 09:00:15 PM 61.0833 -94.0667 349° North  Level FlightAware Approximate
Tue 09:01:15 PM 61.1438 -94.0899 169° South  Level Estimated
Tue 09:02:15 PM 61.0833 -94.0667 349° North  Level FlightAware Approximate
Tue 09:03:15 PM 61.1438 -94.0899 169° South  Level Estimated
Tue 09:04:15 PM 61.0833 -94.0667 349° North  Level FlightAware Approximate
Tue 09:05:15 PM 61.1438 -94.0899 349° North  Level Estimated

Login

Don't have an account? Register now (free) for customized features, flight alerts, and more!